Airfield :
LOGIN :

Register | Disclaimer

   EN    FR    IT 

 










Legend :    VFR   Marginal VFR   IFR   Intensive IFR   Very Intensive IFR
Visi :
Ceiling :
>= 8 km
>= 3000ft
5 to 8 km
1000 to 3000 ft
1500m to 5 km
500 to 1000 ft
800 to 1500m
200 to 500 ft
< 800m
< 200 ft
Symbols :   Thunderstorms  Fog  Heavy snow  Heavy precipitations  Wind > 20 kt
SIGMETs :     Misc.  Thunderstorms  Icing  Turbulence  Mountain Waves  Volcanic Ashes






- Airport Elevation : 255 ft


ENGC - Gullfaks C oil platform

CURRENT METAR :
  • 051950Z 27016KT 9999 -RA SCT020 BKN040 06/04 Q0984 W07/S6

EXPIRED METARs :
  • 051920Z 27017KT 9999 -RA SCT025 BKN040 06/04 Q0984 W07/S6
  • 051852Z 26020KT 9999 -RA FEW015 BKN040 06/04 Q0984 W07/S6
  • 051820Z 26021KT 9999 -RA FEW015 BKN040 06/04 Q0984 W07/S6
  • 051750Z 26021KT 9999 -RA FEW015 BKN040 06/03 Q0985 W07/S6

TAF TAF ENGC
Valid from the 05 at 18:00 until the 06 at 18:00 UTC


0518/0618 26025KT 9999 SCT012TCU BKN035
PROB30
TEMPO 0518/0523 RA BKN012
BECMG 0612/0615 32020KT



MET'MAP, your aeronautical weather chart ! - Copyright ORBIFLY December 2007 - Disclaimer

ORBIFLY MET'MAP TEAM :

Programming & Development : Alexandra Zaïnal
Concept & original design : Baudouin d'Aumeries
Assistance for programming : Marc-Olivier Méhu
Technical & hardware support : Manuel Goepfert

Contact : metmap@orbifly.com




SOURCES & CREDITS :

   NOAA